createdAt,value
2017-10-29T00:00:27.402Z,100.00
2017-10-29T00:01:36.401Z,100.00
2017-10-29T00:02:45.880Z,100.00
2017-10-29T00:03:56.049Z,100.00
2017-10-29T00:05:05.520Z,100.00
2017-10-29T00:06:14.523Z,100.00
2017-10-29T00:07:24.565Z,100.00
2017-10-29T00:08:34.096Z,100.00
2017-10-29T00:09:43.704Z,100.00
2017-10-29T00:10:52.608Z,100.00
2017-10-29T00:12:02.690Z,100.00
2017-10-29T00:13:12.292Z,100.00
2017-10-29T00:14:21.749Z,100.00
2017-10-29T00:15:31.239Z,100.00
2017-10-29T00:16:40.807Z,100.00
2017-10-29T00:17:50.346Z,100.00
2017-10-29T00:18:59.872Z,100.00
2017-10-29T00:20:08.912Z,100.00
2017-10-29T00:21:18.930Z,100.00
2017-10-29T00:22:27.958Z,100.00
2017-10-29T00:23:37.991Z,100.00
2017-10-29T00:24:47.014Z,100.00
2017-10-29T00:25:56.570Z,100.00
2017-10-29T00:27:06.285Z,100.00
2017-10-29T00:28:15.806Z,100.00
2017-10-29T00:29:25.148Z,100.00
2017-10-29T00:30:34.712Z,100.00
2017-10-29T00:31:44.369Z,100.00
2017-10-29T00:32:53.761Z,100.00
2017-10-29T00:34:03.359Z,100.00
2017-10-29T00:35:12.856Z,100.00
2017-10-29T00:36:22.867Z,100.00
2017-10-29T00:37:32.463Z,100.00
2017-10-29T00:38:43.091Z,100.00
2017-10-29T00:39:51.626Z,100.00
2017-10-29T00:41:00.659Z,100.00
2017-10-29T00:42:10.758Z,100.00
2017-10-29T00:43:20.287Z,100.00
2017-10-29T00:44:29.307Z,100.00
2017-10-29T00:45:39.303Z,100.00
2017-10-29T00:46:48.904Z,100.00
2017-10-29T00:47:57.867Z,100.00
2017-10-29T00:49:07.458Z,100.00
2017-10-29T00:50:17.008Z,100.00
2017-10-29T00:51:26.621Z,100.00
2017-10-29T00:52:36.666Z,100.00
2017-10-29T00:53:46.192Z,100.00
2017-10-29T00:54:55.158Z,100.00
2017-10-29T00:56:05.269Z,100.00
2017-10-29T00:57:14.277Z,100.00
2017-10-29T00:58:24.417Z,100.00
2017-10-29T00:59:33.436Z,100.00
2017-10-29T01:00:42.994Z,100.00
2017-10-29T01:01:52.571Z,100.00
2017-10-29T01:03:02.127Z,100.00
2017-10-29T01:04:11.664Z,100.00
2017-10-29T01:05:21.206Z,100.00
2017-10-29T01:06:30.796Z,100.00
2017-10-29T01:07:40.427Z,100.00
2017-10-29T01:08:49.838Z,100.00
2017-10-29T01:09:59.492Z,100.00
2017-10-29T01:11:08.946Z,100.00
2017-10-29T01:12:18.662Z,100.00
2017-10-29T01:13:28.017Z,100.00
2017-10-29T01:14:37.577Z,100.00
2017-10-29T01:15:47.197Z,100.00
2017-10-29T01:16:56.700Z,100.00
2017-10-29T01:18:06.332Z,100.00
2017-10-29T01:19:15.871Z,100.00
2017-10-29T01:20:25.764Z,100.00
2017-10-29T01:21:34.928Z,100.00
2017-10-29T01:22:45.071Z,100.00
2017-10-29T01:23:54.091Z,100.00
2017-10-29T01:25:03.590Z,100.00
2017-10-29T01:26:13.162Z,100.00
2017-10-29T01:27:22.706Z,100.00
2017-10-29T01:28:32.309Z,100.00
2017-10-29T01:29:42.366Z,100.00
2017-10-29T01:30:51.503Z,100.00
2017-10-29T01:32:01.927Z,100.00
2017-10-29T01:33:10.610Z,100.00
2017-10-29T01:34:20.066Z,100.00
2017-10-29T01:35:29.715Z,100.00
2017-10-29T01:36:39.229Z,100.00
2017-10-29T01:37:48.759Z,100.00
2017-10-29T01:38:58.391Z,100.00
2017-10-29T01:40:07.928Z,100.00
2017-10-29T01:41:17.440Z,100.00
2017-10-29T01:42:27.090Z,100.00
2017-10-29T01:43:36.622Z,100.00
2017-10-29T01:44:46.210Z,100.00
2017-10-29T01:45:55.676Z,100.00
2017-10-29T01:47:05.218Z,100.00
2017-10-29T01:48:14.843Z,100.00
2017-10-29T01:49:24.339Z,100.00
2017-10-29T01:50:34.035Z,100.00
2017-10-29T01:51:43.535Z,100.00
2017-10-29T01:52:53.061Z,100.00
2017-10-29T01:54:02.568Z,100.00
2017-10-29T01:55:12.132Z,100.00
2017-10-29T01:56:22.084Z,100.00
2017-10-29T01:57:31.243Z,100.00
2017-10-29T01:58:40.818Z,100.00
2017-10-29T01:59:50.359Z,100.00
2017-10-29T02:00:59.947Z,100.00
2017-10-29T02:02:09.594Z,100.00
2017-10-29T02:03:19.050Z,100.00
2017-10-29T02:04:28.674Z,100.00
2017-10-29T02:05:38.190Z,100.00
2017-10-29T02:06:47.812Z,100.00
2017-10-29T02:07:57.367Z,100.00
2017-10-29T02:09:06.898Z,100.00
2017-10-29T02:10:16.429Z,100.00
2017-10-29T02:11:25.983Z,100.00
2017-10-29T02:12:35.600Z,100.00
2017-10-29T02:13:45.186Z,100.00
2017-10-29T02:14:54.660Z,100.00
2017-10-29T02:16:04.215Z,100.00
2017-10-29T02:17:13.745Z,100.00
2017-10-29T02:18:23.864Z,100.00
2017-10-29T02:19:32.944Z,100.00
2017-10-29T02:20:42.693Z,100.00
2017-10-29T02:21:52.039Z,100.00
2017-10-29T02:23:01.578Z,100.00
2017-10-29T02:24:11.204Z,100.00
2017-10-29T02:25:20.738Z,100.00
2017-10-29T02:26:30.462Z,100.00
2017-10-29T02:27:39.902Z,100.00
2017-10-29T02:28:50.358Z,100.00
2017-10-29T02:29:58.924Z,100.00
2017-10-29T02:31:08.505Z,100.00
2017-10-29T02:32:18.049Z,100.00
2017-10-29T02:33:27.657Z,100.00
2017-10-29T02:34:37.662Z,100.00
2017-10-29T02:35:46.758Z,100.00
2017-10-29T02:36:56.299Z,100.00
2017-10-29T02:38:05.875Z,100.00
2017-10-29T02:39:15.583Z,100.00
2017-10-29T02:40:24.969Z,100.00
2017-10-29T02:41:34.588Z,100.00
2017-10-29T02:42:44.180Z,100.00
2017-10-29T02:43:53.733Z,100.00
2017-10-29T02:45:03.218Z,100.00
2017-10-29T02:46:12.825Z,100.00
2017-10-29T02:47:22.436Z,100.00
2017-10-29T02:48:31.960Z,100.00
2017-10-29T02:49:41.491Z,100.00
2017-10-29T02:50:51.200Z,100.00
2017-10-29T02:52:00.651Z,100.00
2017-10-29T02:53:10.773Z,100.00
2017-10-29T02:54:19.697Z,100.00
2017-10-29T02:55:29.245Z,100.00
2017-10-29T02:56:38.900Z,100.00
2017-10-29T02:57:48.413Z,100.00
2017-10-29T02:58:58.525Z,100.00
2017-10-29T03:00:07.495Z,100.00
2017-10-29T03:01:17.356Z,100.00
2017-10-29T03:02:26.649Z,100.00
2017-10-29T03:03:36.346Z,100.00
2017-10-29T03:04:45.741Z,100.00
2017-10-29T03:05:55.349Z,100.00
2017-10-29T03:07:04.869Z,100.00
2017-10-29T03:08:14.432Z,100.00
2017-10-29T03:09:24.021Z,100.00
2017-10-29T03:10:33.554Z,100.00
2017-10-29T03:11:43.200Z,100.00
2017-10-29T03:12:52.681Z,100.00
2017-10-29T03:14:03.235Z,100.00
2017-10-29T03:15:11.850Z,100.00
2017-10-29T03:16:21.389Z,100.00
2017-10-29T03:17:31.523Z,100.00
2017-10-29T03:18:40.641Z,100.00
2017-10-29T03:19:50.071Z,100.00
2017-10-29T03:20:59.730Z,100.00
2017-10-29T03:22:09.592Z,100.00
2017-10-29T03:23:18.801Z,100.00
2017-10-29T03:24:28.432Z,100.00
2017-10-29T03:25:38.466Z,100.00
2017-10-29T03:26:47.505Z,100.00
2017-10-29T03:27:57.122Z,100.00
2017-10-29T03:29:06.651Z,100.00
2017-10-29T03:30:16.258Z,100.00
2017-10-29T03:31:25.739Z,100.00
2017-10-29T03:32:35.445Z,100.00
2017-10-29T03:33:44.871Z,100.00
2017-10-29T03:34:54.507Z,100.00
2017-10-29T03:36:04.004Z,100.00
2017-10-29T03:37:13.589Z,100.00
2017-10-29T03:38:23.198Z,100.00
2017-10-29T03:39:32.708Z,100.00
2017-10-29T03:40:42.774Z,100.00
2017-10-29T03:41:51.869Z,100.00
2017-10-29T03:43:01.938Z,100.00
2017-10-29T03:44:10.966Z,100.00
2017-10-29T03:45:20.588Z,100.00
2017-10-29T03:46:30.303Z,100.00
2017-10-29T03:47:39.931Z,100.00
2017-10-29T03:48:49.792Z,100.00
2017-10-29T03:49:58.918Z,100.00
2017-10-29T03:51:08.450Z,100.00
2017-10-29T03:52:17.977Z,100.00
2017-10-29T03:53:27.613Z,100.00
2017-10-29T03:54:37.098Z,100.00
2017-10-29T03:55:47.186Z,100.00
2017-10-29T03:56:56.301Z,100.00
2017-10-29T03:58:05.831Z,100.00
2017-10-29T03:59:15.380Z,100.00
2017-10-29T04:00:24.995Z,100.00
2017-10-29T04:01:34.525Z,100.00
2017-10-29T04:02:44.341Z,100.00
2017-10-29T04:03:53.687Z,100.00
2017-10-29T04:05:03.230Z,100.00
2017-10-29T04:06:12.925Z,100.00
2017-10-29T04:07:22.413Z,100.00
2017-10-29T04:08:32.014Z,100.00
2017-10-29T04:09:41.557Z,100.00
2017-10-29T04:10:51.085Z,100.00
2017-10-29T04:12:01.294Z,100.00
2017-10-29T04:13:10.430Z,100.00
2017-10-29T04:14:19.952Z,100.00
2017-10-29T04:15:29.478Z,100.00
2017-10-29T04:16:39.042Z,100.00
2017-10-29T04:17:48.598Z,100.00
2017-10-29T04:18:58.101Z,100.00
2017-10-29T04:20:07.735Z,100.00
2017-10-29T04:21:17.265Z,100.00
2017-10-29T04:22:26.801Z,100.00
2017-10-29T04:23:36.613Z,100.00
2017-10-29T04:24:45.959Z,100.00
2017-10-29T04:25:55.662Z,100.00
2017-10-29T04:27:05.702Z,100.00
2017-10-29T04:28:14.778Z,100.00
2017-10-29T04:29:24.249Z,100.00
2017-10-29T04:30:33.911Z,100.00
2017-10-29T04:31:43.530Z,100.00
2017-10-29T04:32:53.075Z,100.00
2017-10-29T04:34:02.596Z,100.00
2017-10-29T04:35:12.236Z,100.00
2017-10-29T04:36:21.716Z,100.00
2017-10-29T04:37:31.811Z,100.00
2017-10-29T04:38:41.189Z,100.00
2017-10-29T04:39:50.540Z,100.00
2017-10-29T04:41:00.095Z,100.00
2017-10-29T04:42:09.586Z,100.00
2017-10-29T04:43:19.265Z,100.00
2017-10-29T04:44:28.811Z,100.00
2017-10-29T04:45:38.329Z,100.00
2017-10-29T04:46:47.953Z,100.00
2017-10-29T04:47:57.459Z,100.00
2017-10-29T04:49:07.298Z,100.00
2017-10-29T04:50:16.652Z,100.00
2017-10-29T04:51:26.279Z,100.00
2017-10-29T04:52:35.777Z,100.00
2017-10-29T04:53:45.355Z,100.00
2017-10-29T04:54:55.052Z,100.00
2017-10-29T04:56:04.507Z,100.00
2017-10-29T04:57:15.045Z,100.00
2017-10-29T04:58:23.668Z,100.00
2017-10-29T04:59:33.233Z,100.00
2017-10-29T05:00:42.836Z,100.00
2017-10-29T05:01:52.364Z,100.00
2017-10-29T05:03:02.066Z,100.00
2017-10-29T05:04:11.524Z,100.00
2017-10-29T05:05:21.158Z,100.00
2017-10-29T05:06:30.655Z,100.00
2017-10-29T05:07:40.320Z,100.00
2017-10-29T05:08:49.856Z,100.00
2017-10-29T05:09:59.939Z,100.00
2017-10-29T05:11:10.038Z,100.00
2017-10-29T05:12:18.544Z,100.00
2017-10-29T05:13:28.098Z,100.00
2017-10-29T05:14:37.695Z,100.00
2017-10-29T05:15:47.225Z,100.00
2017-10-29T05:16:56.868Z,100.00
2017-10-29T05:18:06.375Z,100.00
2017-10-29T05:19:16.050Z,100.00
2017-10-29T05:20:25.574Z,100.00
2017-10-29T05:21:35.103Z,100.00
2017-10-29T05:22:44.800Z,100.00
2017-10-29T05:23:54.262Z,100.00
2017-10-29T05:25:03.907Z,100.00
2017-10-29T05:26:13.425Z,100.00
2017-10-29T05:27:22.920Z,100.00
2017-10-29T05:28:32.502Z,100.00
2017-10-29T05:29:42.123Z,100.00
2017-10-29T05:30:51.660Z,100.00
2017-10-29T05:32:01.284Z,100.00
2017-10-29T05:33:10.807Z,100.00
2017-10-29T05:34:20.340Z,100.00
2017-10-29T05:35:30.074Z,100.00
2017-10-29T05:36:39.459Z,100.00
2017-10-29T05:37:49.136Z,100.00
2017-10-29T05:38:58.585Z,100.00
2017-10-29T05:40:08.295Z,100.00
2017-10-29T05:41:17.736Z,100.00
2017-10-29T05:42:27.270Z,100.00
2017-10-29T05:43:36.973Z,100.00
2017-10-29T05:44:46.395Z,100.00
2017-10-29T05:45:56.068Z,100.00
2017-10-29T05:47:05.585Z,100.00
2017-10-29T05:48:15.205Z,100.00
2017-10-29T05:49:24.926Z,100.00
2017-10-29T05:50:34.326Z,100.00
2017-10-29T05:51:43.874Z,100.00
2017-10-29T05:52:53.338Z,100.00
2017-10-29T05:54:03.488Z,100.00
2017-10-29T05:55:12.956Z,100.00
2017-10-29T05:56:22.213Z,100.00
2017-10-29T05:57:31.738Z,100.00
2017-10-29T05:58:41.269Z,100.00
2017-10-29T05:59:50.739Z,100.00
2017-10-29T06:01:00.469Z,100.00
2017-10-29T06:02:09.857Z,100.00
2017-10-29T06:03:19.806Z,100.00
2017-10-29T06:04:29.637Z,100.00
2017-10-29T06:05:38.589Z,100.00
2017-10-29T06:06:48.283Z,100.00
2017-10-29T06:07:57.838Z,100.00
2017-10-29T06:09:07.333Z,100.00
2017-10-29T06:10:16.989Z,100.00
2017-10-29T06:11:26.695Z,100.00
2017-10-29T06:12:35.976Z,100.00
2017-10-29T06:13:45.603Z,100.00
2017-10-29T06:14:55.136Z,100.00
2017-10-29T06:16:04.660Z,100.00
2017-10-29T06:17:14.194Z,100.00
2017-10-29T06:18:23.825Z,100.00
2017-10-29T06:19:33.430Z,100.00
2017-10-29T06:20:42.886Z,100.00
2017-10-29T06:21:52.439Z,100.00
2017-10-29T06:23:01.976Z,100.00
2017-10-29T06:24:11.585Z,100.00
2017-10-29T06:25:22.085Z,100.00
2017-10-29T06:26:31.182Z,100.00
2017-10-29T06:27:40.273Z,100.00
2017-10-29T06:28:49.787Z,100.00
2017-10-29T06:29:59.827Z,100.00
2017-10-29T06:31:08.966Z,100.00
2017-10-29T06:32:18.706Z,100.00
2017-10-29T06:33:28.028Z,100.00
2017-10-29T06:34:37.659Z,100.00
2017-10-29T06:35:47.128Z,100.00
2017-10-29T06:36:57.249Z,100.00
2017-10-29T06:38:06.256Z,100.00
2017-10-29T06:39:15.967Z,100.00
2017-10-29T06:40:25.418Z,100.00
2017-10-29T06:41:34.918Z,100.00
2017-10-29T06:42:44.555Z,100.00
2017-10-29T06:43:54.187Z,100.00
2017-10-29T06:45:03.565Z,100.00
2017-10-29T06:46:13.233Z,100.00
2017-10-29T06:47:22.698Z,100.00
2017-10-29T06:48:32.242Z,100.00
2017-10-29T06:49:41.864Z,100.00
2017-10-29T06:50:51.393Z,100.00
2017-10-29T06:52:01.107Z,100.00
2017-10-29T06:53:10.457Z,100.00
2017-10-29T06:54:20.088Z,100.00
2017-10-29T06:55:29.620Z,100.00
2017-10-29T06:56:39.331Z,100.00
2017-10-29T06:57:48.616Z,100.00
2017-10-29T06:58:58.217Z,100.00
2017-10-29T07:00:07.817Z,100.00
2017-10-29T07:01:17.271Z,100.00
2017-10-29T07:02:26.920Z,100.00
2017-10-29T07:03:36.342Z,100.00
2017-10-29T07:04:45.890Z,100.00
2017-10-29T07:05:55.463Z,100.00
2017-10-29T07:07:05.007Z,100.00
2017-10-29T07:08:14.634Z,100.00
2017-10-29T07:09:24.100Z,100.00
2017-10-29T07:10:34.231Z,100.00
2017-10-29T07:11:43.228Z,100.00
2017-10-29T07:12:52.752Z,100.00
2017-10-29T07:14:02.312Z,100.00
2017-10-29T07:15:11.940Z,100.00
2017-10-29T07:16:21.474Z,100.00
2017-10-29T07:17:30.977Z,100.00
2017-10-29T07:18:40.506Z,100.00
2017-10-29T07:19:50.052Z,100.00
2017-10-29T07:20:59.610Z,100.00
2017-10-29T07:22:09.245Z,100.00
2017-10-29T07:23:18.833Z,100.00
2017-10-29T07:24:28.288Z,100.00
2017-10-29T07:25:37.808Z,100.00
2017-10-29T07:26:47.474Z,100.00
2017-10-29T07:27:57.494Z,100.00
2017-10-29T07:29:06.474Z,100.00
2017-10-29T07:30:16.044Z,100.00
2017-10-29T07:31:25.680Z,100.00
2017-10-29T07:32:35.224Z,100.00
2017-10-29T07:33:44.705Z,100.00
2017-10-29T07:34:54.476Z,100.00
2017-10-29T07:36:03.826Z,99.56
2017-10-29T07:37:13.415Z,98.75
2017-10-29T07:38:22.973Z,96.05
2017-10-29T07:39:32.506Z,93.13
2017-10-29T07:40:42.126Z,94.87
2017-10-29T07:41:52.184Z,96.73
2017-10-29T07:43:01.261Z,95.01
2017-10-29T07:44:10.817Z,97.61
2017-10-29T07:45:20.281Z,91.84
2017-10-29T07:46:29.839Z,92.69
2017-10-29T07:47:39.594Z,91.40
2017-10-29T07:48:48.958Z,87.28
2017-10-29T07:49:58.519Z,85.21
2017-10-29T07:51:08.105Z,83.76
2017-10-29T07:52:18.686Z,84.93
2017-10-29T07:53:27.249Z,88.90
2017-10-29T07:54:36.818Z,88.89
2017-10-29T07:55:46.389Z,83.45
2017-10-29T07:56:56.511Z,85.02
2017-10-29T07:58:05.575Z,81.72
2017-10-29T07:59:15.122Z,79.78
2017-10-29T08:00:24.819Z,81.84
2017-10-29T08:01:34.251Z,81.81
2017-10-29T08:02:44.102Z,78.23
2017-10-29T08:03:53.450Z,75.93
2017-10-29T08:05:03.532Z,76.01
2017-10-29T08:06:12.614Z,79.77
2017-10-29T08:07:22.113Z,79.59
2017-10-29T08:08:31.673Z,79.58
2017-10-29T08:09:42.231Z,81.68
2017-10-29T08:10:50.797Z,77.56
2017-10-29T08:12:00.419Z,77.02
2017-10-29T08:13:09.927Z,76.87
2017-10-29T08:14:19.539Z,77.08
2017-10-29T08:15:29.061Z,76.11
2017-10-29T08:16:38.621Z,72.56
2017-10-29T08:17:48.249Z,74.60
2017-10-29T08:18:57.770Z,73.76
2017-10-29T08:20:07.900Z,71.65
2017-10-29T08:21:17.101Z,72.62
2017-10-29T08:22:26.570Z,72.86
2017-10-29T08:23:36.047Z,72.67
2017-10-29T08:24:45.724Z,71.73
2017-10-29T08:25:55.250Z,73.18
2017-10-29T08:27:04.805Z,70.23
2017-10-29T08:28:14.927Z,70.82
2017-10-29T08:29:24.043Z,70.12
2017-10-29T08:30:33.514Z,69.04
2017-10-29T08:31:43.178Z,66.79
2017-10-29T08:32:52.710Z,67.83
2017-10-29T08:34:02.474Z,68.15
2017-10-29T08:35:12.001Z,66.59
2017-10-29T08:36:21.533Z,68.92
2017-10-29T08:37:31.117Z,68.49
2017-10-29T08:38:40.905Z,69.42
2017-10-29T08:39:50.842Z,67.58
2017-10-29T08:40:59.915Z,69.64
2017-10-29T08:42:09.557Z,70.10
2017-10-29T08:43:19.224Z,70.66
2017-10-29T08:44:28.727Z,71.90
2017-10-29T08:45:38.326Z,70.04
2017-10-29T08:46:48.096Z,72.75
2017-10-29T08:47:57.538Z,72.99
2017-10-29T08:49:07.110Z,70.45
2017-10-29T08:50:16.703Z,71.79
2017-10-29T08:51:26.283Z,67.12
2017-10-29T08:52:35.902Z,69.86
2017-10-29T08:53:45.449Z,67.70
2017-10-29T08:54:55.043Z,65.34
2017-10-29T08:56:04.613Z,66.11
2017-10-29T08:57:14.388Z,69.71
2017-10-29T08:58:23.916Z,66.37
2017-10-29T08:59:33.368Z,66.49
2017-10-29T09:00:42.926Z,66.34
2017-10-29T09:01:52.492Z,66.66
2017-10-29T09:03:02.182Z,62.37
2017-10-29T09:04:11.797Z,63.84
2017-10-29T09:05:21.329Z,65.45
2017-10-29T09:06:30.857Z,63.23
2017-10-29T09:07:41.018Z,64.89
2017-10-29T09:08:50.130Z,62.79
2017-10-29T09:09:59.648Z,65.41
2017-10-29T09:11:09.288Z,64.39
2017-10-29T09:12:18.937Z,65.16
2017-10-29T09:13:28.970Z,64.68
2017-10-29T09:14:38.055Z,64.80
2017-10-29T09:15:47.723Z,66.89
2017-10-29T09:16:57.873Z,64.48
2017-10-29T09:18:06.908Z,62.87
2017-10-29T09:19:16.508Z,63.68
2017-10-29T09:20:26.157Z,64.14
2017-10-29T09:21:35.729Z,61.78
2017-10-29T09:22:45.431Z,63.65
2017-10-29T09:23:55.957Z,64.07
2017-10-29T09:25:04.675Z,63.51
2017-10-29T09:26:14.682Z,62.94
2017-10-29T09:27:23.862Z,62.77
2017-10-29T09:28:33.427Z,61.09
2017-10-29T09:29:43.065Z,61.96
2017-10-29T09:30:52.672Z,60.56
2017-10-29T09:32:02.386Z,60.44
2017-10-29T09:33:12.098Z,62.79
2017-10-29T09:34:21.545Z,61.79
2017-10-29T09:35:31.172Z,61.82
2017-10-29T09:36:41.418Z,60.26
2017-10-29T09:37:50.437Z,61.86
2017-10-29T09:39:00.140Z,59.48
2017-10-29T09:40:10.211Z,61.01
2017-10-29T09:41:19.330Z,59.56
2017-10-29T09:42:28.977Z,58.59
2017-10-29T09:43:38.597Z,58.62
2017-10-29T09:44:48.236Z,58.57
2017-10-29T09:45:59.194Z,60.90
2017-10-29T09:47:08.293Z,60.31
2017-10-29T09:48:17.232Z,59.65
2017-10-29T09:49:27.481Z,57.84
2017-10-29T09:50:36.617Z,60.56
2017-10-29T09:51:46.164Z,60.52
2017-10-29T09:52:56.188Z,60.05
2017-10-29T09:54:05.582Z,59.92
2017-10-29T09:55:15.134Z,60.56
2017-10-29T09:56:24.870Z,61.05
2017-10-29T09:57:34.513Z,61.01
2017-10-29T09:58:44.129Z,58.96
2017-10-29T09:59:53.762Z,62.55
2017-10-29T10:01:03.355Z,66.58
2017-10-29T10:02:13.046Z,62.24
2017-10-29T10:03:22.661Z,62.08
2017-10-29T10:04:32.258Z,62.67
2017-10-29T10:05:41.892Z,62.33
2017-10-29T10:06:51.524Z,60.40
2017-10-29T10:08:01.166Z,60.36
2017-10-29T10:09:10.823Z,62.28
2017-10-29T10:10:20.458Z,63.47
2017-10-29T10:11:31.026Z,61.84
2017-10-29T10:12:41.340Z,64.72
2017-10-29T10:13:49.356Z,62.80
2017-10-29T10:14:59.055Z,60.90
2017-10-29T10:16:08.622Z,64.00
2017-10-29T10:17:18.151Z,61.95
2017-10-29T10:18:27.784Z,60.62
2017-10-29T10:19:37.362Z,61.97
2017-10-29T10:20:46.987Z,59.06
2017-10-29T10:21:56.681Z,62.08
2017-10-29T10:23:06.333Z,61.89
2017-10-29T10:24:15.860Z,58.85
2017-10-29T10:25:25.481Z,61.46
2017-10-29T10:26:35.115Z,61.60
2017-10-29T10:27:45.754Z,61.18
2017-10-29T10:28:54.378Z,61.51
2017-10-29T10:30:03.986Z,62.66
2017-10-29T10:31:13.616Z,64.30
2017-10-29T10:32:23.266Z,64.18
2017-10-29T10:33:32.872Z,61.70
2017-10-29T10:34:42.514Z,64.18
2017-10-29T10:35:53.126Z,63.78
2017-10-29T10:37:02.253Z,59.93
2017-10-29T10:38:11.416Z,59.95
2017-10-29T10:39:21.024Z,61.04
2017-10-29T10:40:30.770Z,61.62
2017-10-29T10:41:40.279Z,62.17
2017-10-29T10:42:50.922Z,61.18
2017-10-29T10:43:59.533Z,60.98
2017-10-29T10:45:10.161Z,60.30
2017-10-29T10:46:18.796Z,62.35
2017-10-29T10:47:28.688Z,62.13
2017-10-29T10:48:38.062Z,60.39
2017-10-29T10:49:47.729Z,58.76
2017-10-29T10:50:57.429Z,60.50
2017-10-29T10:52:06.937Z,59.88
2017-10-29T10:53:16.634Z,58.01
2017-10-29T10:54:26.302Z,57.85
2017-10-29T10:55:36.122Z,59.81
2017-10-29T10:56:45.467Z,59.31
2017-10-29T10:57:55.215Z,58.16
2017-10-29T10:59:05.344Z,59.29
2017-10-29T11:00:14.465Z,60.51
2017-10-29T11:01:24.023Z,61.59
2017-10-29T11:02:33.695Z,56.96
2017-10-29T11:03:43.309Z,55.92
2017-10-29T11:04:52.995Z,58.37
2017-10-29T11:06:02.628Z,58.82
2017-10-29T11:07:12.279Z,59.81
2017-10-29T11:08:22.017Z,57.89
2017-10-29T11:09:33.169Z,56.30
2017-10-29T11:10:42.294Z,57.70
2017-10-29T11:11:50.997Z,57.47
2017-10-29T11:13:00.660Z,55.66
2017-10-29T11:14:10.368Z,53.42
2017-10-29T11:15:20.099Z,53.37
2017-10-29T11:16:29.762Z,53.64
2017-10-29T11:17:39.587Z,53.37
2017-10-29T11:18:50.229Z,54.38
2017-10-29T11:19:58.990Z,53.82
2017-10-29T11:21:08.779Z,53.33
2017-10-29T11:22:18.512Z,53.80
2017-10-29T11:23:28.264Z,53.27
2017-10-29T11:24:37.988Z,51.92
2017-10-29T11:25:47.822Z,53.00
2017-10-29T11:26:57.528Z,52.33
2017-10-29T11:28:07.577Z,53.55
2017-10-29T11:29:17.057Z,53.38
2017-10-29T11:30:26.807Z,52.50
2017-10-29T11:31:36.569Z,54.18
2017-10-29T11:32:46.363Z,53.50
2017-10-29T11:33:56.118Z,51.38
2017-10-29T11:35:05.938Z,52.80
2017-10-29T11:36:15.744Z,55.60
2017-10-29T11:37:26.005Z,54.01
2017-10-29T11:38:35.340Z,57.43
2017-10-29T11:39:45.107Z,52.71
2017-10-29T11:40:55.410Z,52.56
2017-10-29T11:42:05.243Z,55.85
2017-10-29T11:43:14.563Z,56.05
2017-10-29T11:44:24.401Z,55.89
2017-10-29T11:45:34.247Z,55.12
2017-10-29T11:46:44.286Z,55.21
2017-10-29T11:47:54.995Z,51.78
2017-10-29T11:49:03.856Z,52.98
2017-10-29T11:50:13.653Z,52.52
2017-10-29T11:51:23.540Z,54.79
2017-10-29T11:52:33.398Z,55.54
2017-10-29T11:53:43.224Z,52.78
2017-10-29T11:54:53.044Z,53.17
2017-10-29T11:56:02.886Z,52.70
2017-10-29T11:57:12.925Z,53.90
2017-10-29T11:58:23.091Z,53.26
2017-10-29T11:59:32.395Z,57.26
2017-10-29T12:00:42.237Z,54.67
2017-10-29T12:01:51.996Z,55.09
2017-10-29T12:03:01.808Z,55.09
2017-10-29T12:04:11.828Z,55.23
2017-10-29T12:05:21.453Z,55.07
2017-10-29T12:06:31.214Z,55.45
2017-10-29T12:07:40.952Z,55.50
2017-10-29T12:08:51.214Z,56.21
2017-10-29T12:10:00.348Z,55.86
2017-10-29T12:11:10.091Z,55.05
2017-10-29T12:12:20.318Z,54.21
2017-10-29T12:13:29.810Z,56.84
2017-10-29T12:14:39.362Z,55.34
2017-10-29T12:15:49.059Z,56.38
2017-10-29T12:16:59.345Z,54.59
2017-10-29T12:18:09.184Z,54.46
2017-10-29T12:19:19.220Z,53.84
2017-10-29T12:20:28.668Z,52.94
2017-10-29T12:21:37.940Z,52.90
2017-10-29T12:22:47.752Z,54.86
2017-10-29T12:23:58.356Z,53.66
2017-10-29T12:25:07.594Z,53.97
2017-10-29T12:26:17.700Z,54.62
2017-10-29T12:27:27.143Z,55.71
2017-10-29T12:28:37.499Z,55.36
2017-10-29T12:29:46.613Z,56.25
2017-10-29T12:30:56.357Z,57.02
2017-10-29T12:32:06.109Z,58.03
2017-10-29T12:33:15.847Z,59.87
2017-10-29T12:34:25.838Z,59.28
2017-10-29T12:35:35.286Z,62.24
2017-10-29T12:36:45.121Z,62.21
2017-10-29T12:37:54.702Z,59.97
2017-10-29T12:39:04.746Z,61.17
2017-10-29T12:40:14.078Z,62.18
2017-10-29T12:41:23.761Z,61.37
2017-10-29T12:42:34.545Z,60.43
2017-10-29T12:43:43.119Z,62.85
2017-10-29T12:44:53.396Z,63.07
2017-10-29T12:46:02.471Z,61.80
2017-10-29T12:47:12.153Z,63.58
2017-10-29T12:48:22.820Z,64.54
2017-10-29T12:49:31.628Z,61.93
2017-10-29T12:50:41.254Z,62.03
2017-10-29T12:51:50.888Z,61.07
2017-10-29T12:53:00.585Z,59.14
2017-10-29T12:54:10.360Z,59.58
2017-10-29T12:55:20.062Z,58.32
2017-10-29T12:56:29.835Z,58.36
2017-10-29T12:57:39.520Z,57.38
2017-10-29T12:58:49.309Z,57.25
2017-10-29T12:59:59.045Z,58.75
2017-10-29T13:01:09.388Z,58.71
2017-10-29T13:02:18.511Z,54.99
2017-10-29T13:03:28.343Z,55.99
2017-10-29T13:04:37.986Z,58.03
2017-10-29T13:05:47.830Z,59.19
2017-10-29T13:06:57.456Z,58.72
2017-10-29T13:08:07.160Z,59.89
2017-10-29T13:09:16.870Z,58.90
2017-10-29T13:10:26.682Z,59.92
2017-10-29T13:11:36.287Z,58.19
2017-10-29T13:12:47.044Z,58.93
2017-10-29T13:13:55.683Z,57.84
2017-10-29T13:15:05.377Z,61.21
2017-10-29T13:16:16.332Z,58.43
2017-10-29T13:17:24.825Z,57.87
2017-10-29T13:18:34.669Z,55.98
2017-10-29T13:19:44.703Z,58.82
2017-10-29T13:20:54.147Z,57.70
2017-10-29T13:22:03.886Z,58.00
2017-10-29T13:23:13.673Z,57.46
2017-10-29T13:24:23.475Z,57.82
2017-10-29T13:25:33.628Z,59.03
2017-10-29T13:26:43.150Z,60.57
2017-10-29T13:27:53.513Z,60.58
2017-10-29T13:29:02.727Z,62.17
2017-10-29T13:30:13.590Z,61.50
2017-10-29T13:31:23.210Z,61.77
2017-10-29T13:32:32.170Z,62.27
2017-10-29T13:33:42.664Z,61.12
2017-10-29T13:34:53.014Z,61.04
2017-10-29T13:36:03.082Z,63.12
2017-10-29T13:37:12.209Z,58.66
2017-10-29T13:38:21.611Z,60.83
2017-10-29T13:39:31.373Z,60.91
2017-10-29T13:40:41.321Z,58.83
2017-10-29T13:41:53.017Z,59.65
2017-10-29T13:43:02.188Z,62.52
2017-10-29T13:44:11.313Z,60.11
2017-10-29T13:45:21.374Z,59.62
2017-10-29T13:46:30.894Z,61.94
2017-10-29T13:47:41.278Z,59.52
2017-10-29T13:48:50.477Z,62.39
2017-10-29T13:50:00.385Z,60.47
2017-10-29T13:51:10.315Z,63.06
2017-10-29T13:53:30.035Z,61.24
2017-10-29T13:54:40.186Z,61.23
2017-10-29T13:55:50.282Z,63.98
2017-10-29T13:57:01.353Z,62.23
2017-10-29T13:58:10.403Z,62.86
2017-10-29T13:59:19.225Z,63.08
2017-10-29T14:00:29.477Z,63.12
2017-10-29T14:01:38.977Z,64.13
2017-10-29T14:02:48.570Z,65.33
2017-10-29T14:03:59.326Z,66.00
2017-10-29T14:05:09.216Z,67.19
2017-10-29T14:06:17.841Z,69.81
2017-10-29T14:07:27.605Z,67.20
2017-10-29T14:08:37.411Z,67.73
2017-10-29T14:09:47.146Z,67.73
2017-10-29T14:10:56.837Z,67.16
2017-10-29T14:12:06.576Z,67.28
2017-10-29T14:13:16.487Z,67.25
2017-10-29T14:14:26.087Z,66.69
2017-10-29T14:15:35.858Z,68.39
2017-10-29T14:16:45.628Z,68.12
2017-10-29T14:17:55.592Z,66.24
2017-10-29T14:19:05.294Z,66.76
2017-10-29T14:20:15.069Z,69.55
2017-10-29T14:21:24.803Z,68.94
2017-10-29T14:22:35.168Z,69.63
2017-10-29T14:23:44.377Z,71.02
2017-10-29T14:24:55.136Z,68.89
2017-10-29T14:26:03.952Z,69.01
2017-10-29T14:27:14.271Z,68.98
2017-10-29T14:28:23.587Z,69.88
2017-10-29T14:29:33.262Z,69.25
2017-10-29T14:30:42.951Z,71.46
2017-10-29T14:31:52.727Z,71.55
2017-10-29T14:33:02.430Z,69.77
2017-10-29T14:34:12.376Z,71.20
2017-10-29T14:35:21.846Z,71.00
2017-10-29T14:36:31.471Z,72.78
2017-10-29T14:37:41.679Z,71.30
2017-10-29T14:38:50.865Z,70.48
2017-10-29T14:40:00.575Z,70.88
2017-10-29T14:41:10.268Z,70.85
2017-10-29T14:42:20.040Z,67.79
2017-10-29T14:43:30.733Z,69.80